createdAt,value
2018-03-15T00:01:54.727Z,7.43
2018-03-15T00:04:22.163Z,7.47
2018-03-15T00:06:49.616Z,8.10
2018-03-15T00:09:17.085Z,7.10
2018-03-15T00:11:44.537Z,8.97
2018-03-15T00:14:12.754Z,8.13
2018-03-15T00:16:40.220Z,8.07
2018-03-15T00:19:07.668Z,8.17
2018-03-15T00:21:35.121Z,8.83
2018-03-15T00:24:02.589Z,7.87
2018-03-15T00:26:30.053Z,7.97
2018-03-15T00:28:57.504Z,7.93
2018-03-15T00:31:24.968Z,7.87
2018-03-15T00:33:52.408Z,7.30
2018-03-15T00:36:19.877Z,7.93
2018-03-15T00:38:47.332Z,8.37
2018-03-15T00:41:14.780Z,8.67
2018-03-15T00:43:42.224Z,7.60
2018-03-15T00:46:09.674Z,8.80
2018-03-15T00:48:37.139Z,8.53
2018-03-15T00:51:04.580Z,7.83
2018-03-15T00:53:32.046Z,8.17
2018-03-15T00:55:59.507Z,7.60
2018-03-15T00:58:26.964Z,7.40
2018-03-15T01:00:54.408Z,7.83
2018-03-15T01:03:21.885Z,8.67
2018-03-15T01:05:49.328Z,7.60
2018-03-15T01:08:16.788Z,7.33
2018-03-15T01:10:44.249Z,7.82
2018-03-15T01:13:11.693Z,8.57
2018-03-15T01:15:39.293Z,8.47
2018-03-15T01:18:06.744Z,7.23
2018-03-15T01:20:34.230Z,8.40
2018-03-15T01:23:03.468Z,8.80
2018-03-15T01:25:30.927Z,8.93
2018-03-15T01:27:58.390Z,9.53
2018-03-15T01:30:25.853Z,9.07
2018-03-15T01:32:53.329Z,8.27
2018-03-15T01:35:20.796Z,8.80
2018-03-15T01:37:48.261Z,10.50
2018-03-15T01:40:15.719Z,10.23
2018-03-15T01:42:52.761Z,9.73
2018-03-15T01:45:20.220Z,10.43
2018-03-15T01:47:47.709Z,9.60
2018-03-15T01:50:15.168Z,9.63
2018-03-15T01:52:42.625Z,9.77
2018-03-15T01:55:10.094Z,10.67
2018-03-15T01:57:39.066Z,10.57
2018-03-15T02:00:06.590Z,10.40
2018-03-15T02:02:34.055Z,9.57
2018-03-15T02:05:01.553Z,9.83
2018-03-15T02:07:29.776Z,9.20
2018-03-15T02:09:57.230Z,9.03
2018-03-15T02:12:24.677Z,8.97
2018-03-15T02:14:52.135Z,9.02
2018-03-15T02:17:19.659Z,8.57
2018-03-15T02:19:47.113Z,9.27
2018-03-15T02:22:14.567Z,9.30
2018-03-15T02:24:42.021Z,9.43
2018-03-15T02:27:09.482Z,10.00
2018-03-15T02:29:36.941Z,9.17
2018-03-15T02:32:04.386Z,9.57
2018-03-15T02:34:31.860Z,9.80
2018-03-15T02:36:59.326Z,9.13
2018-03-15T02:39:26.785Z,9.60
2018-03-15T02:41:55.014Z,10.00
2018-03-15T02:44:22.481Z,9.40
2018-03-15T02:46:49.937Z,9.40
2018-03-15T02:49:17.408Z,9.87
2018-03-15T02:51:44.879Z,10.37
2018-03-15T02:54:12.358Z,9.40
2018-03-15T02:56:40.584Z,9.37
2018-03-15T02:59:08.060Z,8.73
2018-03-15T03:01:35.528Z,9.70
2018-03-15T03:04:02.993Z,9.37
2018-03-15T03:06:30.467Z,10.30
2018-03-15T03:08:59.646Z,13.23
2018-03-15T03:11:27.087Z,12.27
2018-03-15T03:13:54.543Z,11.50
2018-03-15T03:16:22.017Z,11.93
2018-03-15T03:18:49.467Z,12.70
2018-03-15T03:21:16.928Z,11.40
2018-03-15T03:23:44.387Z,11.47
2018-03-15T03:26:11.847Z,13.60
2018-03-15T03:28:39.292Z,13.07
2018-03-15T03:31:07.770Z,12.05
2018-03-15T03:33:35.220Z,12.50
2018-03-15T03:36:02.677Z,13.23
2018-03-15T03:38:30.135Z,12.50
2018-03-15T03:40:57.593Z,10.90
2018-03-15T03:43:25.065Z,11.87
2018-03-15T03:45:52.553Z,11.90
2018-03-15T03:48:20.781Z,12.53
2018-03-15T03:50:48.235Z,12.13
2018-03-15T03:53:16.609Z,11.37
2018-03-15T03:55:44.074Z,11.90
2018-03-15T03:58:11.577Z,11.50
2018-03-15T04:00:39.852Z,12.23
2018-03-15T04:03:08.071Z,12.50
2018-03-15T04:05:35.514Z,14.40
2018-03-15T04:08:03.094Z,12.97
2018-03-15T04:10:30.545Z,14.10
2018-03-15T04:12:58.017Z,13.47
2018-03-15T04:15:25.472Z,13.27
2018-03-15T04:17:52.938Z,14.27
2018-03-15T04:20:20.393Z,14.80
2018-03-15T04:22:47.841Z,15.03
2018-03-15T04:25:15.294Z,13.93
2018-03-15T04:27:42.756Z,13.62
2018-03-15T04:30:10.212Z,14.23
2018-03-15T04:32:37.666Z,13.33
2018-03-15T04:35:05.113Z,14.70
2018-03-15T04:37:32.588Z,14.10
2018-03-15T04:40:00.066Z,13.33
2018-03-15T04:42:28.337Z,13.27
2018-03-15T04:44:55.788Z,13.30
2018-03-15T04:47:23.232Z,14.63
2018-03-15T04:49:50.698Z,14.43
2018-03-15T04:52:18.157Z,16.10
2018-03-15T04:54:45.636Z,13.70
2018-03-15T04:57:13.857Z,14.50
2018-03-15T04:59:41.312Z,13.97
2018-03-15T05:02:08.777Z,14.80
2018-03-15T05:04:36.248Z,16.63
2018-03-15T05:07:03.698Z,15.03
2018-03-15T05:09:31.180Z,15.30
2018-03-15T05:11:58.621Z,14.57
2018-03-15T05:14:26.080Z,14.13
2018-03-15T05:16:53.534Z,15.53
2018-03-15T05:19:21.001Z,15.80
2018-03-15T05:21:48.469Z,15.00
2018-03-15T05:24:15.933Z,15.10
2018-03-15T05:26:43.380Z,14.52
2018-03-15T05:29:10.827Z,14.33
2018-03-15T05:31:38.278Z,15.23
2018-03-15T05:34:05.754Z,14.80
2018-03-15T05:36:33.210Z,15.53
2018-03-15T05:39:00.674Z,15.73
2018-03-15T05:41:28.940Z,15.27
2018-03-15T05:43:56.393Z,15.47
2018-03-15T05:46:23.858Z,16.27
2018-03-15T05:48:51.417Z,15.73
2018-03-15T05:51:18.869Z,15.30
2018-03-15T05:53:47.100Z,15.67
2018-03-15T05:56:14.613Z,14.68
2018-03-15T05:58:42.489Z,13.70
2018-03-15T06:01:09.955Z,17.03
2018-03-15T06:03:38.192Z,16.53
2018-03-15T06:06:05.645Z,16.07
2018-03-15T06:08:33.124Z,16.33
2018-03-15T06:11:00.568Z,16.57
2018-03-15T06:13:28.033Z,16.40
2018-03-15T06:15:55.487Z,16.80
2018-03-15T06:18:22.936Z,17.60
2018-03-15T06:20:50.412Z,17.10
2018-03-15T06:23:17.962Z,18.87
2018-03-15T06:25:45.429Z,19.10
2018-03-15T06:28:13.685Z,20.40
2018-03-15T06:30:41.181Z,19.30
2018-03-15T06:33:09.421Z,16.57
2018-03-15T06:35:36.872Z,18.00
2018-03-15T06:38:04.356Z,18.57
2018-03-15T06:40:31.831Z,18.08
2018-03-15T06:42:59.299Z,18.37
2018-03-15T06:45:27.542Z,17.50
2018-03-15T06:47:55.745Z,17.27
2018-03-15T06:50:24.006Z,19.20
2018-03-15T06:52:51.455Z,21.10
2018-03-15T06:55:18.918Z,21.97
2018-03-15T06:57:46.409Z,18.83
2018-03-15T07:00:13.878Z,17.90
2018-03-15T07:02:41.354Z,19.67
2018-03-15T07:05:08.846Z,18.10
2018-03-15T07:07:37.812Z,18.40
2018-03-15T07:10:05.308Z,19.13
2018-03-15T07:12:33.554Z,18.50
2018-03-15T07:15:01.028Z,17.60
2018-03-15T07:17:30.008Z,19.77
2018-03-15T07:19:57.453Z,19.10
2018-03-15T07:22:24.914Z,18.57
2018-03-15T07:24:52.390Z,18.92
2018-03-15T07:27:19.847Z,18.73
2018-03-15T07:29:47.405Z,21.93
2018-03-15T07:32:14.859Z,18.25
2018-03-15T07:34:42.334Z,20.70
2018-03-15T07:37:10.575Z,21.10
2018-03-15T07:39:38.021Z,21.87
2018-03-15T07:42:05.490Z,20.30
2018-03-15T07:44:32.941Z,20.57
2018-03-15T07:47:00.412Z,19.42
2018-03-15T07:49:27.860Z,19.70
2018-03-15T07:51:55.341Z,21.40
2018-03-15T07:54:22.786Z,21.67
2018-03-15T07:56:50.253Z,17.80
2018-03-15T07:59:17.697Z,19.23
2018-03-15T08:01:45.264Z,19.63
2018-03-15T08:04:12.768Z,19.27
2018-03-15T08:06:40.187Z,18.90
2018-03-15T08:09:09.153Z,18.08
2018-03-15T08:11:36.629Z,18.50
2018-03-15T08:14:04.091Z,16.80
2018-03-15T08:16:31.549Z,16.27
2018-03-15T08:18:59.005Z,16.97
2018-03-15T08:21:26.482Z,16.00
2018-03-15T08:23:54.709Z,17.77
2018-03-15T08:26:22.187Z,17.37
2018-03-15T08:28:49.646Z,18.30
2018-03-15T08:31:17.101Z,17.13
2018-03-15T08:33:44.578Z,18.53
2018-03-15T08:36:12.036Z,17.07
2018-03-15T08:38:40.262Z,17.07
2018-03-15T08:41:07.730Z,17.03
2018-03-15T08:43:35.171Z,16.20
2018-03-15T08:46:02.626Z,17.27
2018-03-15T08:48:30.111Z,15.60
2018-03-15T08:50:57.566Z,15.07
2018-03-15T08:53:25.046Z,16.67
2018-03-15T08:55:52.499Z,16.40
2018-03-15T08:58:21.484Z,14.50
2018-03-15T09:00:49.449Z,15.43
2018-03-15T09:03:16.931Z,13.73
2018-03-15T09:05:44.401Z,15.50
2018-03-15T09:08:12.814Z,14.50
2018-03-15T09:10:40.280Z,15.10
2018-03-15T09:13:07.741Z,14.60
2018-03-15T09:15:35.204Z,14.00
2018-03-15T09:18:02.682Z,15.80
2018-03-15T09:20:30.137Z,14.40
2018-03-15T09:22:57.597Z,14.00
2018-03-15T09:25:25.067Z,14.00
2018-03-15T09:28:07.287Z,15.70
2018-03-15T09:30:35.519Z,17.30
2018-03-15T09:33:03.098Z,15.07
2018-03-15T09:35:31.324Z,14.30
2018-03-15T09:37:58.785Z,14.53
2018-03-15T09:40:26.296Z,13.77
2018-03-15T09:42:53.734Z,13.40
2018-03-15T09:45:21.304Z,13.20
2018-03-15T09:47:48.761Z,13.90
2018-03-15T09:50:16.226Z,12.40
2018-03-15T09:52:43.701Z,12.43
2018-03-15T09:55:11.933Z,9.70
2018-03-15T09:57:39.412Z,10.65
2018-03-15T10:00:07.649Z,9.43
2018-03-15T10:02:35.113Z,8.83
2018-03-15T10:05:02.573Z,8.70
2018-03-15T10:07:30.038Z,9.73
2018-03-15T10:09:57.510Z,9.17
2018-03-15T10:12:24.981Z,10.37
2018-03-15T10:14:52.450Z,8.97
2018-03-15T10:17:20.669Z,9.55
2018-03-15T10:19:48.172Z,10.00
2018-03-15T10:22:15.659Z,9.53
2018-03-15T10:24:43.883Z,9.60
2018-03-15T10:27:16.969Z,9.77
2018-03-15T10:29:44.428Z,9.30
2018-03-15T10:32:11.877Z,9.27
2018-03-15T10:34:39.326Z,8.07
2018-03-15T10:37:06.792Z,9.20
2018-03-15T10:39:34.245Z,9.10
2018-03-15T10:42:01.691Z,9.60
2018-03-15T10:44:29.157Z,8.90
2018-03-15T10:46:56.610Z,8.00
2018-03-15T10:49:24.099Z,8.93
2018-03-15T10:51:51.546Z,10.20
2018-03-15T10:54:19.148Z,8.10
2018-03-15T10:56:46.648Z,8.33
2018-03-15T10:59:14.120Z,9.33
2018-03-15T11:01:47.288Z,9.17
2018-03-15T11:04:14.760Z,9.53
2018-03-15T11:20:01.764Z,9.50
2018-03-15T11:22:29.225Z,10.70
2018-03-15T11:24:56.677Z,10.30
2018-03-15T11:27:24.134Z,10.30
2018-03-15T11:29:51.613Z,9.17
2018-03-15T11:32:19.068Z,9.23
2018-03-15T11:34:46.537Z,9.80
2018-03-15T11:37:14.774Z,9.70
2018-03-15T11:39:42.252Z,10.10
2018-03-15T11:42:09.735Z,9.60
2018-03-15T11:44:37.968Z,10.73
2018-03-15T11:47:05.425Z,9.67
2018-03-15T11:49:32.898Z,9.70
2018-03-15T11:52:00.365Z,9.30
2018-03-15T11:54:27.831Z,9.63
2018-03-15T11:56:55.363Z,9.80
2018-03-15T11:59:22.820Z,10.50
2018-03-15T12:01:50.302Z,9.53
2018-03-15T12:04:17.733Z,10.50
2018-03-15T12:06:45.198Z,8.80
2018-03-15T12:09:12.670Z,8.30
2018-03-15T12:11:40.124Z,8.80
2018-03-15T12:14:07.585Z,8.10
2018-03-15T12:16:35.058Z,9.37
2018-03-15T12:19:03.281Z,8.70
2018-03-15T12:21:30.743Z,9.40
2018-03-15T12:23:58.200Z,10.40
2018-03-15T12:26:25.663Z,8.97
2018-03-15T12:28:53.137Z,9.60
2018-03-15T12:31:20.607Z,8.60
2018-03-15T12:33:48.049Z,9.67
2018-03-15T12:36:15.546Z,9.17
2018-03-15T12:38:43.762Z,9.40
2018-03-15T12:41:11.261Z,10.60
2018-03-15T12:43:38.733Z,10.70
2018-03-15T12:46:06.965Z,10.03
2018-03-15T12:48:34.426Z,9.80
2018-03-15T12:51:01.882Z,10.30
2018-03-15T12:53:29.345Z,10.73
2018-03-15T12:55:56.801Z,9.53
2018-03-15T12:58:24.279Z,10.63
2018-03-15T13:00:51.724Z,10.40
2018-03-15T13:03:19.196Z,11.10
2018-03-15T13:05:46.658Z,11.50
2018-03-15T13:08:14.126Z,12.47
2018-03-15T13:10:43.894Z,11.20
2018-03-15T13:13:11.362Z,11.57
2018-03-15T13:15:38.824Z,11.70
2018-03-15T13:18:06.307Z,11.07
2018-03-15T13:20:34.534Z,12.50
2018-03-15T13:23:02.003Z,11.63
2018-03-15T13:25:29.461Z,11.00
2018-03-15T13:27:56.937Z,11.53
2018-03-15T13:30:24.404Z,11.27
2018-03-15T13:32:52.654Z,10.60
2018-03-15T13:35:20.165Z,11.80
2018-03-15T13:37:47.606Z,11.87
2018-03-15T13:40:15.821Z,12.73
2018-03-15T13:42:43.300Z,12.43
2018-03-15T13:45:10.757Z,12.07
2018-03-15T13:47:38.215Z,12.30
2018-03-15T13:50:05.679Z,12.63
2018-03-15T13:52:33.120Z,13.10
2018-03-15T13:55:00.594Z,12.57
2018-03-15T13:57:28.052Z,12.17
2018-03-15T13:59:55.521Z,11.27
2018-03-15T14:02:22.974Z,12.63
2018-03-15T14:04:50.433Z,11.30
2018-03-15T14:07:17.903Z,12.67
2018-03-15T14:09:46.141Z,11.10
2018-03-15T14:12:13.588Z,12.47
2018-03-15T14:14:41.053Z,12.13
2018-03-15T14:17:08.519Z,12.40
2018-03-15T14:19:35.985Z,13.80
2018-03-15T14:22:03.466Z,12.37
2018-03-15T14:24:30.929Z,13.37
2018-03-15T14:26:59.165Z,12.07
2018-03-15T14:29:26.703Z,13.20
2018-03-15T14:31:54.883Z,12.20
2018-03-15T14:34:22.369Z,11.73
2018-03-15T14:36:49.824Z,14.20
2018-03-15T14:39:17.397Z,12.17
2018-03-15T14:41:44.946Z,13.03
2018-03-15T14:44:12.430Z,13.03
2018-03-15T14:46:39.934Z,14.37
2018-03-15T14:49:08.128Z,12.80
2018-03-15T14:51:35.593Z,11.27
2018-03-15T14:54:03.048Z,11.63
2018-03-15T14:56:30.527Z,12.50
2018-03-15T14:58:57.985Z,12.90
2018-03-15T15:01:26.221Z,11.87
2018-03-15T15:03:53.688Z,12.13
2018-03-15T15:06:21.185Z,12.30
2018-03-15T15:08:48.586Z,12.77
2018-03-15T15:11:16.040Z,11.98
2018-03-15T15:19:29.178Z,12.57
2018-03-15T15:21:56.625Z,13.00
2018-03-15T15:24:24.084Z,18.67
2018-03-15T15:26:51.605Z,12.03
2018-03-15T15:29:20.596Z,12.07
2018-03-15T15:31:48.058Z,14.27
2018-03-15T15:34:15.522Z,12.10
2018-03-15T15:36:43.746Z,11.93
2018-03-15T15:39:11.204Z,14.20
2018-03-15T15:41:38.657Z,13.70
2018-03-15T15:44:06.217Z,13.40
2018-03-15T15:46:33.661Z,12.43
2018-03-15T15:49:01.113Z,12.83
2018-03-15T15:51:28.579Z,12.73
2018-03-15T15:53:56.020Z,12.67
2018-03-15T15:56:24.240Z,11.43
2018-03-15T15:58:51.928Z,11.90
2018-03-15T16:01:19.654Z,12.90
2018-03-15T16:03:47.410Z,11.50
2018-03-15T16:06:14.889Z,12.40
2018-03-15T16:08:42.354Z,11.60
2018-03-15T16:11:09.801Z,13.20
2018-03-15T16:13:37.257Z,12.30
2018-03-15T16:16:04.754Z,12.85
2018-03-15T16:18:32.316Z,13.87
2018-03-15T16:20:59.779Z,11.80
2018-03-15T16:23:28.038Z,11.73
2018-03-15T16:25:55.521Z,12.70
2018-03-15T16:28:23.751Z,12.30
2018-03-15T16:30:51.201Z,12.10
2018-03-15T16:33:18.657Z,12.80
2018-03-15T16:35:46.120Z,12.00
2018-03-15T16:38:13.589Z,11.67
2018-03-15T16:40:41.051Z,13.13
2018-03-15T16:43:08.552Z,12.10
2018-03-15T16:45:36.755Z,11.43
2018-03-15T16:48:04.227Z,12.80
2018-03-15T16:50:31.690Z,12.23
2018-03-15T16:52:59.147Z,14.83
2018-03-15T16:55:26.622Z,13.50
2018-03-15T16:57:54.089Z,12.53
2018-03-15T17:00:21.537Z,12.33
2018-03-15T17:02:48.994Z,13.17
2018-03-15T17:05:17.234Z,12.10
2018-03-15T17:07:44.711Z,12.40
2018-03-15T17:10:12.173Z,12.20
2018-03-15T17:12:42.789Z,14.90
2018-03-15T17:15:10.261Z,13.97
2018-03-15T17:17:37.735Z,13.40
2018-03-15T17:20:05.194Z,11.73
2018-03-15T17:22:32.657Z,10.63
2018-03-15T17:25:00.877Z,11.40
2018-03-15T17:27:28.360Z,10.37
2018-03-15T17:29:55.814Z,11.17
2018-03-15T17:32:23.278Z,10.68
2018-03-15T17:34:50.751Z,10.83
2018-03-15T17:37:18.304Z,10.57
2018-03-15T17:39:45.761Z,10.03
2018-03-15T17:42:13.230Z,9.57
2018-03-15T17:44:40.681Z,9.37
2018-03-15T17:47:08.138Z,9.77
2018-03-15T17:49:35.598Z,8.00
2018-03-15T17:52:03.185Z,9.23
2018-03-15T17:54:31.403Z,9.82
2018-03-15T17:56:58.857Z,13.00
2018-03-15T17:59:26.313Z,13.63
2018-03-15T18:01:53.778Z,13.00
2018-03-15T18:04:21.246Z,13.03
2018-03-15T18:06:48.712Z,13.60
2018-03-15T18:09:16.173Z,14.40
2018-03-15T18:11:43.826Z,13.63
2018-03-15T18:14:11.315Z,14.10
2018-03-15T18:16:39.544Z,15.00
2018-03-15T18:19:07.794Z,14.63
2018-03-15T18:21:35.264Z,15.40
2018-03-15T18:24:02.736Z,13.73
2018-03-15T18:26:30.193Z,14.33
2018-03-15T18:28:57.650Z,17.35
2018-03-15T18:31:25.105Z,23.20
2018-03-15T18:33:52.582Z,18.83
2018-03-15T18:36:20.143Z,18.77
2018-03-15T18:38:47.593Z,19.20
2018-03-15T18:41:15.164Z,20.67
2018-03-15T18:43:43.419Z,22.20
2018-03-15T18:46:10.860Z,20.90
2018-03-15T18:48:38.350Z,24.67
2018-03-15T18:51:05.820Z,23.90
2018-03-15T18:53:34.789Z,22.17
2018-03-15T18:56:02.263Z,20.20
2018-03-15T18:58:31.236Z,20.67
2018-03-15T19:00:58.726Z,19.67
2018-03-15T19:03:26.948Z,18.33
2018-03-15T19:05:54.435Z,18.70
2018-03-15T19:08:21.896Z,16.60
2018-03-15T19:10:49.358Z,14.20
2018-03-15T19:13:16.848Z,14.60
2018-03-15T19:15:45.066Z,14.80
2018-03-15T19:18:12.529Z,14.17
2018-03-15T19:20:40.003Z,15.53
2018-03-15T19:23:07.462Z,14.80
2018-03-15T19:25:34.927Z,15.30
2018-03-15T19:28:02.376Z,16.87
2018-03-15T19:30:29.854Z,15.10
2018-03-15T19:32:57.319Z,15.97
2018-03-15T19:35:25.660Z,12.97
2018-03-15T19:37:53.117Z,13.97
2018-03-15T19:40:20.610Z,12.33
2018-03-15T19:42:48.830Z,13.60
2018-03-15T19:45:16.347Z,11.90
2018-03-15T19:47:44.580Z,12.03
2018-03-15T19:50:12.036Z,14.17
2018-03-15T19:52:39.503Z,10.80
2018-03-15T19:55:06.971Z,10.27
2018-03-15T19:57:34.424Z,10.07
2018-03-15T20:00:02.644Z,11.77
2018-03-15T20:02:30.155Z,10.90
2018-03-15T20:04:57.592Z,9.30
2018-03-15T20:07:25.060Z,8.77
2018-03-15T20:09:52.500Z,8.70
2018-03-15T20:12:19.969Z,8.20
2018-03-15T20:14:47.419Z,8.93
2018-03-15T20:17:14.872Z,7.37
2018-03-15T20:19:42.349Z,8.53
2018-03-15T20:22:09.796Z,8.23
2018-03-15T20:24:37.260Z,9.30
2018-03-15T20:27:04.710Z,7.90
2018-03-15T20:29:32.161Z,7.80
2018-03-15T20:31:59.630Z,7.97
2018-03-15T20:34:27.085Z,6.97
2018-03-15T20:36:54.578Z,7.43
2018-03-15T20:39:28.710Z,7.43
2018-03-15T20:41:56.972Z,7.30
2018-03-15T20:44:25.232Z,8.20
2018-03-15T20:46:58.324Z,8.40
2018-03-15T20:49:25.716Z,7.37
2018-03-15T20:51:53.177Z,8.13
2018-03-15T20:54:20.617Z,8.00
2018-03-15T20:56:48.879Z,8.13
2018-03-15T20:59:17.093Z,9.47
2018-03-15T21:01:44.573Z,9.23
2018-03-15T21:04:12.030Z,8.27
2018-03-15T21:06:39.493Z,8.10
2018-03-15T21:09:06.945Z,9.07
2018-03-15T21:11:35.164Z,8.13
2018-03-15T21:14:03.412Z,8.80
2018-03-15T21:16:30.873Z,7.30
2018-03-15T21:18:58.323Z,7.97
2018-03-15T21:21:25.886Z,8.37
2018-03-15T21:23:53.354Z,9.60
2018-03-15T21:26:20.836Z,9.07
2018-03-15T21:28:49.053Z,8.48
2018-03-15T21:31:16.510Z,9.30
2018-03-15T21:33:44.889Z,9.52
2018-03-15T21:36:12.338Z,9.20
2018-03-15T21:38:39.816Z,10.03
2018-03-15T21:41:07.269Z,9.80
2018-03-15T21:43:34.755Z,9.83
2018-03-15T21:46:14.565Z,9.50
2018-03-15T21:48:42.554Z,9.40
2018-03-15T21:51:09.992Z,9.33
2018-03-15T21:53:37.466Z,9.60
2018-03-15T21:56:04.930Z,8.82
2018-03-15T21:58:32.401Z,9.83
2018-03-15T22:00:59.855Z,9.10
2018-03-15T22:03:27.710Z,9.50
2018-03-15T22:05:56.118Z,10.00
2018-03-15T22:08:24.404Z,9.17
2018-03-15T22:10:52.668Z,9.57
2018-03-15T22:13:20.939Z,10.80
2018-03-15T22:15:48.525Z,8.77
2018-03-15T22:18:16.033Z,10.47
2018-03-15T22:20:43.518Z,8.40
2018-03-15T22:23:11.014Z,8.60
2018-03-15T22:25:38.491Z,8.67
2018-03-15T22:28:06.023Z,7.77
2018-03-15T22:30:33.505Z,9.80
2018-03-15T22:33:01.024Z,7.97
2018-03-15T22:35:36.644Z,7.90
2018-03-15T22:38:04.154Z,8.33
2018-03-15T22:40:31.643Z,8.43
2018-03-15T22:42:59.120Z,9.87
2018-03-15T22:45:26.606Z,9.10
2018-03-15T22:47:54.857Z,10.00
2018-03-15T22:50:23.138Z,10.63
2018-03-15T22:52:50.648Z,10.80
2018-03-15T22:55:18.147Z,10.27
2018-03-15T22:57:45.629Z,9.73
2018-03-15T23:00:13.897Z,9.70
2018-03-15T23:02:42.152Z,8.83
2018-03-15T23:05:09.660Z,8.90
2018-03-15T23:07:37.907Z,9.50
2018-03-15T23:10:06.158Z,9.70
2018-03-15T23:12:33.639Z,8.98
2018-03-15T23:15:01.162Z,8.97
2018-03-15T23:17:28.635Z,8.97
2018-03-15T23:19:56.131Z,8.03
2018-03-15T23:22:24.372Z,6.30
2018-03-15T23:24:51.866Z,5.97
2018-03-15T23:27:20.099Z,4.93
2018-03-15T23:29:47.600Z,5.60
2018-03-15T23:32:15.840Z,4.47
2018-03-15T23:34:43.336Z,5.65
2018-03-15T23:37:10.805Z,4.77
2018-03-15T23:39:38.313Z,5.73
2018-03-15T23:42:05.810Z,5.00
2018-03-15T23:44:33.287Z,4.43
2018-03-15T23:47:00.778Z,5.20
2018-03-15T23:49:28.277Z,4.70
2018-03-15T23:51:56.532Z,4.10
2018-03-15T23:54:24.010Z,4.20
2018-03-15T23:56:52.270Z,4.50
2018-03-15T23:59:19.761Z,3.60
